createdAt,value
2019-02-19T00:00:43.700Z,1013.78
2019-02-19T00:01:53.157Z,1013.74
2019-02-19T00:03:03.108Z,1013.77
2019-02-19T00:04:12.823Z,1013.76
2019-02-19T00:05:22.576Z,1013.73
2019-02-19T00:06:32.319Z,1013.77
2019-02-19T00:07:42.034Z,1013.71
2019-02-19T00:08:51.761Z,1013.75
2019-02-19T00:10:01.210Z,1013.7
2019-02-19T00:11:10.952Z,1013.72
2019-02-19T00:12:20.663Z,1013.68
2019-02-19T00:13:30.653Z,1013.64
2019-02-19T00:14:40.401Z,1013.68
2019-02-19T00:15:50.376Z,1013.68
2019-02-19T00:16:59.635Z,1013.73
2019-02-19T00:18:09.376Z,1013.71
2019-02-19T00:19:19.342Z,1013.71
2019-02-19T00:20:29.302Z,1013.67
2019-02-19T00:21:38.780Z,1013.69
2019-02-19T00:22:48.762Z,1013.7
2019-02-19T00:23:58.753Z,1013.67
2019-02-19T00:25:08.214Z,1013.73
2019-02-19T00:26:17.977Z,1013.71
2019-02-19T00:27:27.717Z,1013.69
2019-02-19T00:28:37.180Z,1013.69
2019-02-19T00:29:46.635Z,1013.71
2019-02-19T00:30:56.339Z,1013.68
2019-02-19T00:32:06.343Z,1013.69
2019-02-19T00:33:16.319Z,1013.66
2019-02-19T00:34:26.055Z,1013.63
2019-02-19T00:35:36.026Z,1013.6
2019-02-19T00:36:45.761Z,1013.56
2019-02-19T00:37:55.483Z,1013.52
2019-02-19T00:39:06.584Z,1013.58
2019-02-19T00:40:16.562Z,1013.55
2019-02-19T00:41:26.543Z,1013.55
2019-02-19T00:42:36.022Z,1013.55
2019-02-19T00:43:45.473Z,1013.59
2019-02-19T00:44:55.209Z,1013.57
2019-02-19T00:46:04.950Z,1013.61
2019-02-19T00:47:14.470Z,1013.55
2019-02-19T00:48:24.177Z,1013.56
2019-02-19T00:49:33.898Z,1013.56
2019-02-19T00:50:43.156Z,1013.51
2019-02-19T00:51:52.373Z,1013.53
2019-02-19T00:53:02.109Z,1013.52
2019-02-19T00:54:11.623Z,1013.56
2019-02-19T00:55:21.086Z,1013.58
2019-02-19T00:56:30.553Z,1013.59
2019-02-19T00:57:40.261Z,1013.58
2019-02-19T00:58:49.979Z,1013.56
2019-02-19T00:59:59.938Z,1013.48
2019-02-19T01:01:09.430Z,1013.54
2019-02-19T01:02:19.386Z,1013.57
2019-02-19T01:03:29.374Z,1013.48
2019-02-19T01:04:39.108Z,1013.51
2019-02-19T01:05:48.802Z,1013.46
2019-02-19T01:06:58.772Z,1013.4
2019-02-19T01:08:08.277Z,1013.4
2019-02-19T01:09:18.259Z,1013.41
2019-02-19T01:10:27.982Z,1013.38
2019-02-19T01:11:37.429Z,1013.47
2019-02-19T01:15:27.308Z,1013.47
2019-02-19T01:16:36.764Z,1013.48
2019-02-19T01:17:45.989Z,1013.49
2019-02-19T01:18:55.963Z,1013.52
2019-02-19T01:20:05.895Z,1013.49
2019-02-19T01:21:15.090Z,1013.52
2019-02-19T01:22:24.774Z,1013.5
2019-02-19T01:23:34.458Z,1013.51
2019-02-19T01:24:44.151Z,1013.53
2019-02-19T01:25:53.845Z,1013.5
2019-02-19T01:27:03.779Z,1013.5
2019-02-19T01:28:13.235Z,1013.45
2019-02-19T01:29:22.926Z,1013.48
2019-02-19T01:30:32.374Z,1013.49
2019-02-19T01:31:42.061Z,1013.48
2019-02-19T01:32:51.997Z,1013.46
2019-02-19T01:34:01.714Z,1013.47
2019-02-19T01:35:11.425Z,1013.42
2019-02-19T01:36:21.132Z,1013.43
2019-02-19T01:37:31.075Z,1013.39
2019-02-19T01:38:40.267Z,1013.36
2019-02-19T01:39:49.965Z,1013.32
2019-02-19T01:40:59.659Z,1013.33
2019-02-19T01:42:09.094Z,1013.31
2019-02-19T01:43:18.286Z,1013.34
2019-02-19T01:44:28.233Z,1013.35
2019-02-19T01:45:37.924Z,1013.34
2019-02-19T01:46:47.864Z,1013.29
2019-02-19T01:47:57.559Z,1013.34
2019-02-19T01:49:07.502Z,1013.36
2019-02-19T01:50:17.187Z,1013.36
2019-02-19T01:51:27.134Z,1013.35
2019-02-19T01:52:36.843Z,1013.4
2019-02-19T01:53:46.309Z,1013.39
2019-02-19T01:54:56.050Z,1013.34
2019-02-19T01:56:06.022Z,1013.36
2019-02-19T01:57:15.714Z,1013.32
2019-02-19T01:58:25.649Z,1013.31
2019-02-19T01:59:35.096Z,1013.3
2019-02-19T02:00:44.290Z,1013.32
2019-02-19T02:01:54.005Z,1013.24
2019-02-19T02:03:03.953Z,1013.27
2019-02-19T02:04:13.394Z,1013.18
2019-02-19T02:05:23.081Z,1013.24
2019-02-19T02:06:33.018Z,1013.26
2019-02-19T02:07:42.451Z,1013.3
2019-02-19T02:08:52.387Z,1013.27
2019-02-19T02:10:01.824Z,1013.26
2019-02-19T02:11:11.788Z,1013.26
2019-02-19T02:12:21.251Z,1013.28
2019-02-19T02:13:30.952Z,1013.28
2019-02-19T02:14:40.393Z,1013.26
2019-02-19T02:15:49.602Z,1013.27
2019-02-19T02:16:59.038Z,1013.24
2019-02-19T02:18:08.993Z,1013.25
2019-02-19T02:19:18.680Z,1013.26
2019-02-19T02:20:28.124Z,1013.26
2019-02-19T02:21:37.816Z,1013.29
2019-02-19T02:22:47.758Z,1013.31
2019-02-19T02:23:57.474Z,1013.3
2019-02-19T02:25:07.218Z,1013.39
2019-02-19T02:26:16.920Z,1013.4
2019-02-19T02:27:26.887Z,1013.42
2019-02-19T02:28:36.330Z,1013.46
2019-02-19T02:29:45.766Z,1013.45
2019-02-19T02:30:55.204Z,1013.48
2019-02-19T02:32:04.926Z,1013.52
2019-02-19T02:33:14.365Z,1013.61
2019-02-19T02:34:23.813Z,1013.59
2019-02-19T02:35:33.522Z,1013.59
2019-02-19T02:36:43.472Z,1013.61
2019-02-19T02:37:53.175Z,1013.62
2019-02-19T02:39:02.630Z,1013.58
2019-02-19T02:40:12.581Z,1013.57
2019-02-19T02:41:22.530Z,1013.61
2019-02-19T02:42:32.008Z,1013.59
2019-02-19T02:43:41.742Z,1013.64
2019-02-19T02:44:51.433Z,1013.57
2019-02-19T02:46:01.416Z,1013.54
2019-02-19T02:47:11.417Z,1013.45
2019-02-19T02:48:21.380Z,1013.41
2019-02-19T02:49:31.087Z,1013.39
2019-02-19T02:50:41.034Z,1013.38
2019-02-19T02:51:50.983Z,1013.42
2019-02-19T02:53:00.926Z,1013.42
2019-02-19T02:54:10.862Z,1013.45
2019-02-19T02:55:20.570Z,1013.44
2019-02-19T02:56:30.263Z,1013.42
2019-02-19T02:57:40.206Z,1013.43
2019-02-19T02:58:49.908Z,1013.45
2019-02-19T02:59:59.591Z,1013.5
2019-02-19T03:01:09.341Z,1013.49
2019-02-19T03:02:19.294Z,1013.4
2019-02-19T03:03:29.002Z,1013.36
2019-02-19T03:04:38.693Z,1013.38
2019-02-19T03:05:48.398Z,1013.39
2019-02-19T03:06:58.343Z,1013.48
2019-02-19T03:08:08.054Z,1013.51
2019-02-19T03:09:17.495Z,1013.5
2019-02-19T03:10:26.924Z,1013.53
2019-02-19T03:11:36.866Z,1013.55
2019-02-19T03:12:46.643Z,1013.55
2019-02-19T03:13:56.357Z,1013.53
2019-02-19T03:15:06.340Z,1013.46
2019-02-19T03:16:16.306Z,1013.5
2019-02-19T03:17:26.001Z,1013.45
2019-02-19T03:18:35.695Z,1013.43
2019-02-19T03:19:45.643Z,1013.43
2019-02-19T03:20:55.137Z,1013.31
2019-02-19T03:22:04.816Z,1013.23
2019-02-19T03:23:14.766Z,1013.27
2019-02-19T03:24:24.448Z,1013.3
2019-02-19T03:25:33.909Z,1013.35
2019-02-19T03:26:43.598Z,1013.41
2019-02-19T03:27:53.539Z,1013.56
2019-02-19T03:29:03.493Z,1013.58
2019-02-19T03:30:13.450Z,1013.58
2019-02-19T03:31:23.206Z,1013.63
2019-02-19T03:32:32.938Z,1013.61
2019-02-19T03:33:42.653Z,1013.66
2019-02-19T03:34:52.627Z,1013.66
2019-02-19T03:36:02.586Z,1013.65
2019-02-19T03:37:12.543Z,1013.71
2019-02-19T03:38:22.493Z,1013.72
2019-02-19T03:39:32.196Z,1013.7
2019-02-19T03:40:42.137Z,1013.71
2019-02-19T03:41:52.127Z,1013.68
2019-02-19T03:43:01.572Z,1013.73
2019-02-19T03:44:11.515Z,1013.72
2019-02-19T03:45:20.972Z,1013.7
2019-02-19T03:46:30.694Z,1013.69
2019-02-19T03:47:40.383Z,1013.68
2019-02-19T03:48:50.102Z,1013.67
2019-02-19T03:49:59.911Z,1013.66
2019-02-19T03:51:09.104Z,1013.68
2019-02-19T03:52:18.822Z,1013.72
2019-02-19T03:53:28.809Z,1013.68
2019-02-19T03:54:38.245Z,1013.71
2019-02-19T03:55:48.189Z,1013.71
2019-02-19T03:56:57.898Z,1013.78
2019-02-19T03:58:07.847Z,1013.83
2019-02-19T03:59:17.865Z,1013.8
2019-02-19T04:00:27.585Z,1013.82
2019-02-19T04:01:37.530Z,1013.83
2019-02-19T04:02:47.243Z,1013.85
2019-02-19T04:03:57.206Z,1013.87
2019-02-19T04:05:06.912Z,1013.9
2019-02-19T04:06:16.632Z,1013.85
2019-02-19T04:07:26.359Z,1013.95
2019-02-19T04:08:36.308Z,1013.91
2019-02-19T04:09:46.249Z,1013.94
2019-02-19T04:10:55.716Z,1013.92
2019-02-19T04:12:05.413Z,1013.9
2019-02-19T04:13:15.371Z,1013.92
2019-02-19T04:14:25.050Z,1013.9
2019-02-19T04:15:34.255Z,1013.89
2019-02-19T04:16:44.264Z,1013.88
2019-02-19T04:17:54.209Z,1013.89
2019-02-19T04:19:04.152Z,1013.88
2019-02-19T04:20:14.110Z,1013.91
2019-02-19T04:21:24.047Z,1013.91
2019-02-19T04:22:33.486Z,1013.92
2019-02-19T04:23:43.220Z,1013.91
2019-02-19T04:24:53.167Z,1013.86
2019-02-19T04:26:02.923Z,1013.85
2019-02-19T04:27:14.565Z,1013.88
2019-02-19T04:28:24.256Z,1013.88
2019-02-19T04:29:34.204Z,1013.84
2019-02-19T04:30:43.940Z,1013.8
2019-02-19T04:31:53.929Z,1013.77
2019-02-19T04:33:03.877Z,1013.74
2019-02-19T04:34:13.814Z,1013.7
2019-02-19T04:35:23.515Z,1013.69
2019-02-19T04:36:33.458Z,1013.71
2019-02-19T04:37:42.925Z,1013.7
2019-02-19T04:38:52.624Z,1013.75
2019-02-19T04:40:02.590Z,1013.78
2019-02-19T04:41:12.290Z,1013.78
2019-02-19T04:42:21.992Z,1013.81
2019-02-19T04:43:31.678Z,1013.88
2019-02-19T04:44:41.623Z,1013.89
2019-02-19T04:45:51.576Z,1013.83
2019-02-19T04:47:01.024Z,1013.82
2019-02-19T04:48:10.753Z,1013.83
2019-02-19T04:49:20.198Z,1013.81
2019-02-19T04:50:30.157Z,1013.8
2019-02-19T04:51:39.603Z,1013.8
2019-02-19T04:52:49.573Z,1013.77
2019-02-19T04:53:59.037Z,1013.8
2019-02-19T04:55:08.474Z,1013.81
2019-02-19T04:56:18.423Z,1013.86
2019-02-19T04:57:29.301Z,1013.83
2019-02-19T04:58:39.031Z,1013.83
2019-02-19T04:59:48.987Z,1013.87
2019-02-19T05:00:58.959Z,1013.88
2019-02-19T05:02:08.897Z,1013.89
2019-02-19T05:03:18.325Z,1013.83
2019-02-19T05:04:27.759Z,1013.87
2019-02-19T05:05:37.458Z,1013.89
2019-02-19T05:06:47.146Z,1013.87
2019-02-19T05:07:56.845Z,1013.89
2019-02-19T05:09:06.546Z,1013.89
2019-02-19T05:10:16.256Z,1013.92
2019-02-19T05:11:25.699Z,1013.89
2019-02-19T05:12:35.142Z,1013.81
2019-02-19T05:13:44.824Z,1013.77
2019-02-19T05:14:54.277Z,1013.71
2019-02-19T05:16:03.732Z,1013.74
2019-02-19T05:17:13.422Z,1013.77
2019-02-19T05:18:23.565Z,1013.75
2019-02-19T05:19:33.008Z,1013.75
2019-02-19T05:20:42.706Z,1013.8
2019-02-19T05:21:52.648Z,1013.77
2019-02-19T05:23:02.347Z,1013.81
2019-02-19T05:24:12.548Z,1013.82
2019-02-19T05:25:21.990Z,1013.86
2019-02-19T05:26:31.212Z,1013.83
2019-02-19T05:27:41.166Z,1013.8
2019-02-19T05:28:51.131Z,1013.84
2019-02-19T05:30:00.825Z,1013.88
2019-02-19T05:31:10.028Z,1013.87
2019-02-19T05:32:19.983Z,1013.83
2019-02-19T05:33:29.679Z,1013.77
2019-02-19T05:34:39.113Z,1013.86
2019-02-19T05:35:48.346Z,1013.88
2019-02-19T05:36:57.796Z,1013.92
2019-02-19T05:38:07.754Z,1013.92
2019-02-19T05:39:17.456Z,1013.88
2019-02-19T05:40:26.949Z,1013.9
2019-02-19T05:41:36.385Z,1013.98
2019-02-19T05:42:45.850Z,1013.96
2019-02-19T05:43:55.564Z,1013.98
2019-02-19T05:45:05.513Z,1013.96
2019-02-19T05:46:15.459Z,1014.05
2019-02-19T05:47:25.403Z,1014.04
2019-02-19T05:48:35.463Z,1014.06
2019-02-19T05:49:45.401Z,1013.99
2019-02-19T05:50:55.090Z,1014.01
2019-02-19T05:52:04.539Z,1014.02
2019-02-19T05:53:14.502Z,1013.93
2019-02-19T05:54:24.201Z,1013.98
2019-02-19T05:55:34.190Z,1013.98
2019-02-19T05:56:43.910Z,1013.89
2019-02-19T05:57:52.892Z,1013.92
2019-02-19T05:59:02.646Z,1013.93
2019-02-19T06:00:12.616Z,1013.95
2019-02-19T06:01:22.321Z,1013.95
2019-02-19T06:02:32.025Z,1013.97
2019-02-19T06:03:41.716Z,1014.04
2019-02-19T06:04:50.907Z,1014.07
2019-02-19T06:06:00.860Z,1014.04
2019-02-19T06:07:10.545Z,1014.07
2019-02-19T06:08:20.506Z,1014.12
2019-02-19T06:09:30.206Z,1014.09
2019-02-19T06:10:39.648Z,1014.11
2019-02-19T06:11:51.814Z,1014.11
2019-02-19T06:13:01.760Z,1014.11
2019-02-19T06:14:11.694Z,1014.13
2019-02-19T06:15:21.654Z,1014.14
2019-02-19T06:16:31.350Z,1014.13
2019-02-19T06:17:41.302Z,1014.17
2019-02-19T06:18:51.248Z,1014.19
2019-02-19T06:20:01.224Z,1014.2
2019-02-19T06:21:11.181Z,1014.19
2019-02-19T06:22:21.130Z,1014.21
2019-02-19T06:23:30.596Z,1014.2
2019-02-19T06:24:40.056Z,1014.18
2019-02-19T06:25:49.775Z,1014.22
2019-02-19T06:26:59.642Z,1014.21
2019-02-19T06:28:09.111Z,1014.21
2019-02-19T06:29:19.050Z,1014.23
2019-02-19T06:30:28.998Z,1014.26
2019-02-19T06:31:38.943Z,1014.28
2019-02-19T06:32:48.387Z,1014.21
2019-02-19T06:33:58.074Z,1014.29
2019-02-19T06:35:08.056Z,1014.31
2019-02-19T06:36:17.767Z,1014.3
2019-02-19T06:37:27.466Z,1014.34
2019-02-19T06:38:37.185Z,1014.34
2019-02-19T06:39:46.890Z,1014.38
2019-02-19T06:40:55.825Z,1014.42
2019-02-19T06:42:06.758Z,1014.42
2019-02-19T06:43:16.452Z,1014.39
2019-02-19T06:44:26.136Z,1014.44
2019-02-19T06:45:35.575Z,1014.44
2019-02-19T06:46:45.508Z,1014.45
2019-02-19T06:47:55.477Z,1014.45
2019-02-19T06:49:05.428Z,1014.51
2019-02-19T06:50:15.365Z,1014.51
2019-02-19T06:51:25.131Z,1014.53
2019-02-19T06:52:35.063Z,1014.57
2019-02-19T06:53:44.515Z,1014.6
2019-02-19T06:54:54.490Z,1014.61
2019-02-19T06:56:04.194Z,1014.61
2019-02-19T06:57:13.634Z,1014.62
2019-02-19T06:58:23.582Z,1014.65
2019-02-19T06:59:33.526Z,1014.66
2019-02-19T07:00:42.956Z,1014.7
2019-02-19T07:01:52.642Z,1014.63
2019-02-19T07:03:02.328Z,1014.68
2019-02-19T07:04:12.270Z,1014.64
2019-02-19T07:05:21.960Z,1014.71
2019-02-19T07:06:31.407Z,1014.7
2019-02-19T07:07:40.885Z,1014.65
2019-02-19T07:08:50.581Z,1014.77
2019-02-19T07:10:00.043Z,1014.76
2019-02-19T07:11:09.983Z,1014.71
2019-02-19T07:12:19.678Z,1014.69
2019-02-19T07:13:29.383Z,1014.71
2019-02-19T07:14:38.832Z,1014.7
2019-02-19T07:15:48.056Z,1014.74
2019-02-19T07:16:57.991Z,1014.79
2019-02-19T07:18:15.910Z,1014.75
2019-02-19T07:19:26.181Z,1014.73
2019-02-19T07:20:36.124Z,1014.77
2019-02-19T07:21:45.817Z,1014.79
2019-02-19T07:22:55.027Z,1014.84
2019-02-19T07:24:04.806Z,1014.82
2019-02-19T07:25:14.795Z,1014.79
2019-02-19T07:26:24.768Z,1014.8
2019-02-19T07:27:34.754Z,1014.82
2019-02-19T07:28:44.200Z,1014.87
2019-02-19T07:29:53.636Z,1014.88
2019-02-19T07:31:03.325Z,1014.91
2019-02-19T07:32:13.288Z,1014.91
2019-02-19T07:33:22.973Z,1014.92
2019-02-19T07:34:32.995Z,1014.97
2019-02-19T07:35:43.889Z,1014.98
2019-02-19T07:36:53.588Z,1014.96
2019-02-19T07:38:03.541Z,1014.97
2019-02-19T07:39:12.992Z,1014.97
2019-02-19T07:40:22.937Z,1014.96
2019-02-19T07:41:32.368Z,1014.99
2019-02-19T07:42:42.075Z,1014.97
2019-02-19T07:43:51.771Z,1014.94
2019-02-19T07:45:01.835Z,1014.92
2019-02-19T07:46:11.773Z,1014.9
2019-02-19T07:47:24.550Z,1014.89
2019-02-19T07:48:34.491Z,1014.88
2019-02-19T07:49:43.976Z,1014.87
2019-02-19T07:50:53.179Z,1014.91
2019-02-19T07:52:03.127Z,1014.9
2019-02-19T07:53:13.065Z,1014.89
2019-02-19T07:54:23.028Z,1014.9
2019-02-19T07:55:33.077Z,1014.91
2019-02-19T07:56:42.770Z,1014.91
2019-02-19T07:57:52.511Z,1014.88
2019-02-19T07:59:02.464Z,1014.94
2019-02-19T08:00:12.152Z,1014.95
2019-02-19T08:01:21.591Z,1014.93
2019-02-19T08:02:31.287Z,1015.05
2019-02-19T08:03:40.986Z,1015.09
2019-02-19T08:04:50.675Z,1015.08
2019-02-19T08:06:00.117Z,1015.07
2019-02-19T08:07:10.058Z,1015.12
2019-02-19T08:08:20.005Z,1015.07
2019-02-19T08:09:29.966Z,1015.13
2019-02-19T08:10:39.655Z,1015.1
2019-02-19T08:11:49.601Z,1015.1
2019-02-19T08:12:58.794Z,1015.16
2019-02-19T08:14:08.497Z,1015.16
2019-02-19T08:15:18.454Z,1015.15
2019-02-19T08:16:28.185Z,1015.1
2019-02-19T08:17:37.894Z,1015.1
2019-02-19T08:18:47.874Z,1015.12
2019-02-19T08:19:57.816Z,1015.14
2019-02-19T08:21:16.163Z,1015.07
2019-02-19T08:22:26.249Z,1015.13
2019-02-19T08:23:35.949Z,1015.18
2019-02-19T08:24:45.138Z,1015.17
2019-02-19T08:25:55.074Z,1015.17
2019-02-19T08:27:04.282Z,1015.2
2019-02-19T08:28:13.996Z,1015.17
2019-02-19T08:29:23.684Z,1015.2
2019-02-19T08:30:33.146Z,1015.27
2019-02-19T08:31:42.595Z,1015.23
2019-02-19T08:32:52.535Z,1015.26
2019-02-19T08:34:02.485Z,1015.23
2019-02-19T08:35:12.173Z,1015.26
2019-02-19T08:36:22.118Z,1015.28
2019-02-19T08:37:32.472Z,1015.26
2019-02-19T08:38:43.055Z,1015.27
2019-02-19T08:39:52.838Z,1015.25
2019-02-19T08:41:02.534Z,1015.26
2019-02-19T08:42:12.237Z,1015.29
2019-02-19T08:43:21.730Z,1015.32
2019-02-19T08:44:31.175Z,1015.33
2019-02-19T08:45:40.618Z,1015.32
2019-02-19T08:46:49.569Z,1015.33
2019-02-19T08:47:59.019Z,1015.39
2019-02-19T08:49:08.453Z,1015.33
2019-02-19T08:50:17.893Z,1015.32
2019-02-19T08:51:27.351Z,1015.35
2019-02-19T08:52:37.047Z,1015.37
2019-02-19T08:53:46.990Z,1015.35
2019-02-19T08:54:56.925Z,1015.33
2019-02-19T08:56:06.426Z,1015.29
2019-02-19T08:57:16.376Z,1015.3
2019-02-19T08:58:26.318Z,1015.28
2019-02-19T08:59:36.277Z,1015.28
2019-02-19T09:00:45.973Z,1015.32
2019-02-19T09:01:55.669Z,1015.31
2019-02-19T09:03:05.612Z,1015.27
2019-02-19T09:04:17.358Z,1015.32
2019-02-19T09:05:27.300Z,1015.31
2019-02-19T09:06:37.255Z,1015.32
2019-02-19T09:07:46.758Z,1015.32
2019-02-19T09:08:56.460Z,1015.29
2019-02-19T09:10:06.395Z,1015.26
2019-02-19T09:11:16.102Z,1015.3
2019-02-19T09:12:25.792Z,1015.32
2019-02-19T09:13:35.489Z,1015.3
2019-02-19T09:14:45.182Z,1015.33
2019-02-19T09:15:56.995Z,1015.28
2019-02-19T09:17:06.994Z,1015.35
2019-02-19T09:18:16.935Z,1015.35
2019-02-19T09:19:26.640Z,1015.35
2019-02-19T09:20:36.910Z,1015.34
2019-02-19T09:21:46.723Z,1015.32
2019-02-19T09:22:56.680Z,1015.33
2019-02-19T09:24:09.379Z,1015.44
2019-02-19T09:25:19.235Z,1015.47
2019-02-19T09:26:29.196Z,1015.44
2019-02-19T09:27:39.159Z,1015.42
2019-02-19T09:28:50.718Z,1015.44
2019-02-19T09:30:00.426Z,1015.41
2019-02-19T09:31:10.375Z,1015.41
2019-02-19T09:32:20.066Z,1015.44
2019-02-19T09:33:29.773Z,1015.42
2019-02-19T09:34:39.471Z,1015.42
2019-02-19T09:35:48.908Z,1015.48
2019-02-19T09:36:58.618Z,1015.46
2019-02-19T09:38:08.306Z,1015.48
2019-02-19T09:39:18.020Z,1015.52
2019-02-19T09:40:27.998Z,1015.45
2019-02-19T09:41:38.815Z,1015.52
2019-02-19T09:42:48.501Z,1015.47
2019-02-19T09:43:58.185Z,1015.52
2019-02-19T09:45:08.126Z,1015.44
2019-02-19T09:46:18.073Z,1015.43
2019-02-19T09:47:28.028Z,1015.44
2019-02-19T09:48:37.725Z,1015.48
2019-02-19T09:49:47.702Z,1015.45
2019-02-19T09:50:57.658Z,1015.49
2019-02-19T09:52:07.594Z,1015.47
2019-02-19T09:53:17.541Z,1015.51
2019-02-19T09:54:27.004Z,1015.48
2019-02-19T09:55:36.952Z,1015.43
2019-02-19T09:56:46.772Z,1015.44
2019-02-19T09:57:56.717Z,1015.45
2019-02-19T09:59:06.669Z,1015.53
2019-02-19T10:00:16.363Z,1015.51
2019-02-19T10:01:28.135Z,1015.49
2019-02-19T10:02:38.141Z,1015.53
2019-02-19T10:03:49.178Z,1015.59
2019-02-19T10:04:58.875Z,1015.54
2019-02-19T10:06:08.837Z,1015.57
2019-02-19T10:07:19.341Z,1015.56
2019-02-19T10:08:29.164Z,1015.65
2019-02-19T10:09:39.118Z,1015.66
2019-02-19T10:10:49.074Z,1015.67
2019-02-19T10:11:58.766Z,1015.61
2019-02-19T10:13:08.481Z,1015.67
2019-02-19T10:14:18.477Z,1015.66
2019-02-19T10:15:28.440Z,1015.63
2019-02-19T10:16:41.512Z,1015.6
2019-02-19T10:17:51.527Z,1015.52
2019-02-19T10:19:10.473Z,1015.58
2019-02-19T10:20:20.173Z,1015.53
2019-02-19T10:21:30.520Z,1015.51
2019-02-19T10:22:40.205Z,1015.53
2019-02-19T10:23:50.164Z,1015.5
2019-02-19T10:25:00.152Z,1015.47
2019-02-19T10:26:09.961Z,1015.5
2019-02-19T10:27:18.895Z,1015.44
2019-02-19T10:28:28.101Z,1015.39
2019-02-19T10:29:38.037Z,1015.49
2019-02-19T10:30:47.730Z,1015.46
2019-02-19T10:31:56.921Z,1015.45
2019-02-19T10:33:06.615Z,1015.5
2019-02-19T10:34:16.087Z,1015.47
2019-02-19T10:35:25.555Z,1015.49
2019-02-19T10:36:35.237Z,1015.47
2019-02-19T10:37:46.252Z,1015.5
2019-02-19T10:38:57.054Z,1015.48
2019-02-19T10:40:06.752Z,1015.52
2019-02-19T10:41:15.952Z,1015.57
2019-02-19T10:42:25.647Z,1015.5
2019-02-19T10:43:35.355Z,1015.53
2019-02-19T10:44:45.038Z,1015.53
2019-02-19T10:45:54.989Z,1015.51
2019-02-19T10:47:04.697Z,1015.51
2019-02-19T10:48:18.898Z,1015.5
2019-02-19T10:49:29.026Z,1015.47
2019-02-19T10:50:38.485Z,1015.53
2019-02-19T10:51:48.470Z,1015.55
2019-02-19T10:52:58.423Z,1015.52
2019-02-19T10:54:08.140Z,1015.51
2019-02-19T10:55:18.106Z,1015.55
2019-02-19T10:56:27.819Z,1015.47
2019-02-19T10:57:37.522Z,1015.52
2019-02-19T10:58:47.213Z,1015.53
2019-02-19T10:59:56.658Z,1015.51
2019-02-19T11:01:06.605Z,1015.46
2019-02-19T11:02:16.540Z,1015.48
2019-02-19T11:03:26.226Z,1015.49
2019-02-19T11:04:35.710Z,1015.45
2019-02-19T11:05:47.583Z,1015.42
2019-02-19T11:06:57.283Z,1015.43
2019-02-19T11:08:06.983Z,1015.48
2019-02-19T11:09:16.702Z,1015.43
2019-02-19T11:10:26.636Z,1015.5
2019-02-19T11:11:36.084Z,1015.5
2019-02-19T11:12:45.551Z,1015.43
2019-02-19T11:13:54.755Z,1015.47
2019-02-19T11:15:04.697Z,1015.52
2019-02-19T11:16:14.479Z,1015.5
2019-02-19T11:17:23.416Z,1015.52
2019-02-19T11:18:33.129Z,1015.53
2019-02-19T11:19:43.075Z,1015.59
2019-02-19T11:20:52.539Z,1015.59
2019-02-19T11:22:01.994Z,1015.6
2019-02-19T11:23:11.438Z,1015.62
2019-02-19T11:24:21.148Z,1015.55
2019-02-19T11:25:30.590Z,1015.54
2019-02-19T11:26:40.275Z,1015.57
2019-02-19T11:27:50.216Z,1015.57
2019-02-19T11:28:59.897Z,1015.63
2019-02-19T11:30:09.588Z,1015.54
2019-02-19T11:31:21.002Z,1015.56
2019-02-19T11:32:30.442Z,1015.58
2019-02-19T11:33:40.436Z,1015.55
2019-02-19T11:34:50.389Z,1015.62
2019-02-19T11:36:00.087Z,1015.55
2019-02-19T11:37:09.834Z,1015.54
2019-02-19T11:38:19.806Z,1015.59
2019-02-19T11:39:29.506Z,1015.52
2019-02-19T11:40:39.204Z,1015.57
2019-02-19T11:41:49.142Z,1015.57
2019-02-19T11:42:58.825Z,1015.48
2019-02-19T11:44:08.275Z,1015.52
2019-02-19T11:45:17.969Z,1015.46
2019-02-19T11:46:27.421Z,1015.45
2019-02-19T11:47:37.106Z,1015.5
2019-02-19T11:48:46.806Z,1015.48
2019-02-19T11:49:56.792Z,1015.51
2019-02-19T11:51:06.235Z,1015.53
2019-02-19T11:52:15.667Z,1015.48
2019-02-19T11:53:25.676Z,1015.5
2019-02-19T11:54:35.615Z,1015.51
2019-02-19T11:55:45.301Z,1015.54
2019-02-19T11:56:54.979Z,1015.59
2019-02-19T11:58:04.926Z,1015.52
2019-02-19T11:59:14.621Z,1015.52
2019-02-19T12:00:24.338Z,1015.48
2019-02-19T12:01:33.537Z,1015.48
2019-02-19T12:02:43.492Z,1015.46
2019-02-19T12:03:52.690Z,1015.52
2019-02-19T12:05:02.156Z,1015.5
2019-02-19T12:06:12.284Z,1015.52
2019-02-19T12:07:22.219Z,1015.53
2019-02-19T12:08:38.760Z,1015.55
2019-02-19T12:09:49.058Z,1015.55
2019-02-19T12:10:58.492Z,1015.56
2019-02-19T12:12:08.466Z,1015.55
2019-02-19T12:13:18.159Z,1015.56
2019-02-19T12:14:27.848Z,1015.56
2019-02-19T12:15:37.551Z,1015.59
2019-02-19T12:16:47.490Z,1015.57
2019-02-19T12:17:57.443Z,1015.65
2019-02-19T12:19:07.175Z,1015.62
2019-02-19T12:20:16.868Z,1015.61
2019-02-19T12:21:26.813Z,1015.57
2019-02-19T12:22:36.755Z,1015.59
2019-02-19T12:23:46.483Z,1015.6
2019-02-19T12:24:55.935Z,1015.62
2019-02-19T12:26:05.633Z,1015.61
2019-02-19T12:27:15.349Z,1015.57
2019-02-19T12:28:24.837Z,1015.62
2019-02-19T12:29:34.617Z,1015.67
2019-02-19T12:30:44.132Z,1015.65
2019-02-19T12:31:53.656Z,1015.67
2019-02-19T12:33:03.360Z,1015.66
2019-02-19T12:34:13.047Z,1015.65
2019-02-19T12:35:22.752Z,1015.59
2019-02-19T12:36:32.721Z,1015.61
2019-02-19T12:37:42.656Z,1015.71
2019-02-19T12:38:52.097Z,1015.62
2019-02-19T12:40:01.533Z,1015.59
2019-02-19T12:41:11.485Z,1015.6
2019-02-19T12:42:21.419Z,1015.63
2019-02-19T12:43:30.856Z,1015.61
2019-02-19T12:44:40.805Z,1015.62
2019-02-19T12:45:49.745Z,1015.62
2019-02-19T12:46:59.184Z,1015.62
2019-02-19T12:48:08.879Z,1015.67
2019-02-19T12:49:18.351Z,1015.61
2019-02-19T12:50:28.287Z,1015.54
2019-02-19T12:51:37.739Z,1015.6
2019-02-19T12:52:47.688Z,1015.62
2019-02-19T12:53:57.627Z,1015.63
2019-02-19T12:55:07.588Z,1015.58
2019-02-19T12:56:17.283Z,1015.63
2019-02-19T12:57:26.717Z,1015.62
2019-02-19T12:58:37.394Z,1015.62
2019-02-19T12:59:47.090Z,1015.6
2019-02-19T13:01:04.219Z,1015.56
2019-02-19T13:02:13.922Z,1015.59
2019-02-19T13:03:25.010Z,1015.56
2019-02-19T13:04:35.006Z,1015.59
2019-02-19T13:05:44.729Z,1015.55
2019-02-19T13:06:54.681Z,1015.55
2019-02-19T13:08:04.386Z,1015.58
2019-02-19T13:09:14.321Z,1015.63
2019-02-19T13:10:24.011Z,1015.6
2019-02-19T13:11:33.953Z,1015.66
2019-02-19T13:12:43.947Z,1015.7
2019-02-19T13:13:54.126Z,1015.74
2019-02-19T13:15:04.083Z,1015.71
2019-02-19T13:16:13.832Z,1015.6
2019-02-19T13:17:23.565Z,1015.65
2019-02-19T13:18:33.020Z,1015.6
2019-02-19T13:19:42.464Z,1015.61
2019-02-19T13:20:52.400Z,1015.58
2019-02-19T13:22:02.081Z,1015.65
2019-02-19T13:23:12.056Z,1015.66
2019-02-19T13:24:22.002Z,1015.67
2019-02-19T13:25:31.717Z,1015.62
2019-02-19T13:26:41.420Z,1015.61
2019-02-19T13:27:51.129Z,1015.65
2019-02-19T13:29:01.071Z,1015.59
2019-02-19T13:30:10.765Z,1015.7
2019-02-19T13:31:20.730Z,1015.64
2019-02-19T13:32:30.674Z,1015.67
2019-02-19T13:33:40.363Z,1015.69
2019-02-19T13:34:49.806Z,1015.68
2019-02-19T13:35:59.495Z,1015.71
2019-02-19T13:37:09.202Z,1015.62
2019-02-19T13:38:18.894Z,1015.73
2019-02-19T13:39:28.582Z,1015.66
2019-02-19T13:40:38.279Z,1015.63
2019-02-19T13:41:47.967Z,1015.64
2019-02-19T13:42:57.666Z,1015.69
2019-02-19T13:44:07.366Z,1015.64
2019-02-19T13:45:17.060Z,1015.69
2019-02-19T13:46:27.006Z,1015.7
2019-02-19T13:47:36.998Z,1015.67
2019-02-19T13:48:46.450Z,1015.69
2019-02-19T13:49:56.134Z,1015.63
2019-02-19T13:51:05.818Z,1015.64
2019-02-19T13:52:22.337Z,1015.69
2019-02-19T13:53:32.664Z,1015.64
2019-02-19T13:54:42.098Z,1015.68
2019-02-19T13:55:51.856Z,1015.69
2019-02-19T13:57:01.568Z,1015.73
2019-02-19T13:58:11.001Z,1015.74
2019-02-19T13:59:20.704Z,1015.74
2019-02-19T14:00:30.650Z,1015.76
2019-02-19T14:01:40.118Z,1015.73
2019-02-19T14:02:50.055Z,1015.75
2019-02-19T14:04:00.012Z,1015.78
2019-02-19T14:05:09.458Z,1015.75
2019-02-19T14:06:19.402Z,1015.77
2019-02-19T14:07:28.886Z,1015.75
2019-02-19T14:08:38.587Z,1015.83
2019-02-19T14:09:48.277Z,1015.75
2019-02-19T14:10:58.005Z,1015.78